Metaline, Washington
Current Conditions -  °F | °C
As of 8:00 PM on Wednesday 22 Oct 2014 (Local Time) from CYCG Reporting Station
Rain Showers Rain Showers  
Wind Chill: 44°   Ceiling: 3600
Heat Index: 46°   Visibility: 8mi
Dew Point: 46°   Wind: 5mph
Humidity: 100%   Direction: 330°NNW
Pressure: 29.76"   Gusts: NA
Location:  48.85°N, 117.39°W
Report Text: CYCG 230300Z 33004KT 280V030 8SM -SHRA SCT020 OVC036 08/08 A2976 RMK SC3SC5 SLP086
Loading
Personal Weather Stations






























Interactive Weather Map
Tropical Storm Tracking
New forecast layout! Learn more

10-Day Weather Forecast

Advertisements
Track Severe Weather on mobile